Deo Volente — PHFJ — position and weather

sailwx.info

Track history (hours):
 
Tides and Currents Weather Stations Pressure Air Temp Water Temp Dewpoint Dewpoint Depression Visibility Wind Speed Wind Dir Waves Ship Positions

Deo Volente

Last reported at 2015-May-07 09:33 UTC. Time now 2015-May-07 09:39 UTC.
Position N 53°54' E 009°09'.

Length 105 m; draft 5 m.

Type: Cargo ship. MMSI: 246518000.

Date/timePositionNaut miles runAvg speedWind from/ knotsBaromVisibWave heightAir tempDewpointWater temp
2015-May-07 09:33N 53°54' E 009°09'6 5.7
2015-May-07 08:33N 53°58' E 009°16'9 8.6
2015-May-07 07:30N 54°07' E 009°20'8 8.2
2015-May-07 06:33N 54°11' E 009°31'8 7.6
2015-May-07 05:33N 54°17' E 009°39'5 5.4
2015-May-07 04:33N 54°21' E 009°46'7 6.8
2015-May-07 03:33N 54°21' E 009°57'5 4.9
2015-May-07 02:33N 54°22' E 010°05'2 2.5
2015-May-07 01:33N 54°22' E 010°09'3 2.8
2015-May-07 00:33N 54°24' E 010°12'10 9.7
2015-May-06 23:33N 54°31' E 010°23'1713.6
2015-May-06 22:21N 54°35' E 010°51'1013.3
2015-May-06 21:33N 54°36' E 011°09'1515.1
2015-May-06 20:33N 54°29' E 011°32'1515.3
2015-May-06 19:33N 54°21' E 011°54'1312.1
2015-May-06 18:31N 54°10' E 012°06'1 0.9
2015-May-06 17:33N 54°09' E 012°06'0 0.0
2015-May-06 16:32N 54°09' E 012°06'0 0.0
2015-May-06 15:33N 54°09' E 012°06'0 0.0
2015-May-06 14:33N 54°09' E 012°06'0 0.0
2015-May-06 13:33N 54°09' E 012°06'0 0.0
2015-May-06 12:33N 54°09' E 012°06'0 0.0
2015-May-06 11:32N 54°09' E 012°06'5 5.5
2015-May-06 10:33N 54°14' E 012°03'1514.6
2015-May-06 09:33N 54°28' E 012°10'1715.2
2015-May-06 08:27N 54°44' E 012°22'1415.3
2015-May-06 07:33N 54°55' E 012°35'1515.0
2015-May-06 06:34N 55°10' E 012°37'1515.3
2015-May-06 05:34N 55°25' E 012°40'1312.8
2015-May-06 04:33N 55°38' E 012°42'1514.7
2015-May-06 03:33N 55°53' E 012°40'1413.8
2015-May-06 02:33N 56°06' E 012°33'1714.4
2015-May-06 01:21N 56°20' E 012°16'1214.9
2015-May-06 00:32N 56°31' E 012°05'1515.0
2015-May-05 23:33N 56°44' E 011°52'1515.3
2015-May-05 22:33N 56°58' E 011°42'1515.0
2015-May-05 21:33N 57°12' E 011°31'1514.8
2015-May-05 20:34N 57°25' E 011°20'1514.7
2015-May-05 19:34N 57°37' E 011°02'1414.5
2015-May-05 18:34N 57°47' E 010°42'13513.5
2015-May-05 08:30N 58°06' E 006°30'1313.1
2015-May-05 07:31N 58°14' E 006°10'1313.4
2015-May-05 06:33N 58°22' E 005°52'1413.3
2015-May-05 05:30N 58°32' E 005°34'1313.8
2015-May-05 04:33N 58°44' E 005°21'1414.1
2015-May-05 03:33N 58°56' E 005°07'1514.7
2015-May-05 02:34N 59°08' E 004°52'  
2015-May-02 16:33N 64°46' E 011°02'8 7.5
2015-May-02 15:33N 64°52' E 011°14'1010.1
2015-May-02 14:34N 64°44' E 010°58'15115.9
2015-May-02 05:06N 63°08' E 006°33'1015.1
2015-May-02 04:25N 63°01' E 006°18'22313.0
2015-May-01 11:20N 59°21' E 004°56'1012.5
2015-May-01 10:33N 59°12' E 004°60'1212.4
2015-May-01 09:33N 59°06' E 005°21'1212.5
2015-May-01 08:33N 59°02' E 005°44'5 4.5
2015-May-01 07:33N 58°57' E 005°46'0 0.0
2015-May-01 06:33N 58°57' E 005°46'0 0.1
2015-May-01 05:33N 58°57' E 005°46'0 0.0
2015-May-01 04:33N 58°57' E 005°46'5 4.6
2015-May-01 03:33N 59°01' E 005°41'1010.1
2015-May-01 02:33N 58°52' E 005°32'4 4.0
2015-May-01 01:34N 58°49' E 005°27'8 7.6
2015-May-01 00:33N 58°42' E 005°26'10 9.7
2015-Apr-30 23:34N 58°33' E 005°34'10 9.5
2015-Apr-30 22:33N 58°25' E 005°45'1010.0
2015-Apr-30 21:34N 58°18' E 005°58'1010.0
2015-Apr-30 20:34N 58°11' E 006°12'1010.1
2015-Apr-30 19:34N 58°05' E 006°27'153 6.5
2015-Apr-29 20:06N 55°35' E 007°25'916.1
2015-Apr-29 19:33N 55°26' E 007°26'1616.1
2015-Apr-29 18:33N 55°10' E 007°27'1616.0
2015-Apr-29 17:33N 54°54' E 007°28'1615.8
2015-Apr-29 16:33N 54°38' E 007°30'1615.8
2015-Apr-29 15:33N 54°23' E 007°31'1615.7
2015-Apr-29 14:33N 54°07' E 007°33'1615.6
2015-Apr-29 13:33N 53°53' E 007°46'1414.1
2015-Apr-29 12:34N 53°48' E 008°08'1717.4
2015-Apr-29 11:33N 53°37' E 008°30'5 5.4
2015-Apr-29 10:33N 53°32' E 008°35'2 1.6
2015-Apr-29 09:33N 53°30' E 008°35'0 0.0
2015-Apr-29 08:33N 53°30' E 008°35'0 0.0
2015-Apr-29 07:33N 53°30' E 008°35'0 0.0
2015-Apr-29 06:33N 53°30' E 008°35'0 0.0
2015-Apr-29 05:33N 53°30' E 008°35'2 1.7
2015-Apr-29 04:33N 53°32' E 008°35'5 4.7
2015-Apr-29 03:33N 53°36' E 008°30'1212.4
2015-Apr-29 02:33N 53°44' E 008°15'1312.5
2015-Apr-29 01:33N 53°51' E 007°57'1312.7
2015-Apr-29 00:33N 53°54' E 007°36'1413.9
2015-Apr-28 23:33N 53°51' E 007°13'2114.0
2015-Apr-28 22:05N 53°47' E 006°39'2114.1
2015-Apr-28 20:33N 53°41' E 006°04'1414.1
2015-Apr-28 19:33N 53°36' E 005°41'1414.3
2015-Apr-28 18:33N 53°32' E 005°19'1414.4
2015-Apr-28 17:33N 53°27' E 004°56'1613.9
2015-Apr-28 16:25N 53°16' E 004°36'1314.6
2015-Apr-28 15:31N 53°05' E 004°25'4514.9
2015-Apr-28 12:31N 52°25' E 003°54'1414.9
2015-Apr-28 11:34N 52°10' E 003°54'1211.5
2015-Apr-28 10:33N 51°60' E 004°02'1212.0
2015-Apr-28 09:33N 51°54' E 004°19'4 4.1
2015-Apr-28 08:33N 51°54' E 004°26'0 0.0
2015-Apr-28 07:33N 51°54' E 004°26'0 0.0
2015-Apr-28 06:33N 51°54' E 004°26'0 0.0
2015-Apr-28 05:33N 51°54' E 004°26'0 0.0
2015-Apr-28 04:33N 51°54' E 004°26'0 0.0
2015-Apr-28 03:33N 51°54' E 004°26'0 0.0
2015-Apr-28 02:33N 51°54' E 004°26'0 0.0
2015-Apr-28 01:33N 51°54' E 004°26'0 0.0
2015-Apr-28 00:33N 51°54' E 004°26'0 0.0
2015-Apr-27 23:33N 51°54' E 004°26'0 0.0
2015-Apr-27 22:33N 51°54' E 004°26'3 2.8
2015-Apr-27 21:33N 51°54' E 004°21'0 0.0
2015-Apr-27 20:33N 51°54' E 004°21'0 0.0
2015-Apr-27 19:33N 51°54' E 004°21'0 0.0
2015-Apr-27 18:33N 51°54' E 004°21'0 0.0
2015-Apr-27 17:33N 51°54' E 004°21'0 0.0
2015-Apr-27 16:33N 51°54' E 004°21'0 0.0
2015-Apr-27 15:34N 51°54' E 004°21'0 0.0
2015-Apr-27 14:33N 51°54' E 004°21'0 0.0
2015-Apr-27 13:33N 51°54' E 004°21'0 0.0
2015-Apr-27 12:33N 51°54' E 004°21'0 0.0
2015-Apr-27 11:33N 51°54' E 004°21'0 0.0
2015-Apr-27 10:33N 51°54' E 004°21'  
Track history (hours):
 
Tides and Currents Weather Stations Pressure Air Temp Water Temp Dewpoint Dewpoint Depression Visibility Wind Speed Wind Dir Waves Ship Positions

Deo Volente

Last reported at 2015-May-07 09:33 UTC. Time now 2015-May-07 09:39 UTC.
Position N 53°54' E 009°09'.

Length 105 m; draft 5 m.

Type: Cargo ship. MMSI: 246518000.

Date/timePositionNaut miles runAvg speedWind from/ knotsBaromVisibWave heightAir tempDewpointWater temp
2015-May-07 09:33N 53°54' E 009°09'6 5.7
2015-May-07 08:33N 53°58' E 009°16'9 8.6
2015-May-07 07:30N 54°07' E 009°20'8 8.2
2015-May-07 06:33N 54°11' E 009°31'8 7.6
2015-May-07 05:33N 54°17' E 009°39'5 5.4
2015-May-07 04:33N 54°21' E 009°46'7 6.8
2015-May-07 03:33N 54°21' E 009°57'5 4.9
2015-May-07 02:33N 54°22' E 010°05'2 2.5
2015-May-07 01:33N 54°22' E 010°09'3 2.8
2015-May-07 00:33N 54°24' E 010°12'10 9.7
2015-May-06 23:33N 54°31' E 010°23'1713.6
2015-May-06 22:21N 54°35' E 010°51'1013.3
2015-May-06 21:33N 54°36' E 011°09'1515.1
2015-May-06 20:33N 54°29' E 011°32'1515.3
2015-May-06 19:33N 54°21' E 011°54'1312.1
2015-May-06 18:31N 54°10' E 012°06'1 0.9
2015-May-06 17:33N 54°09' E 012°06'0 0.0
2015-May-06 16:32N 54°09' E 012°06'0 0.0
2015-May-06 15:33N 54°09' E 012°06'0 0.0
2015-May-06 14:33N 54°09' E 012°06'0 0.0
2015-May-06 13:33N 54°09' E 012°06'0 0.0
2015-May-06 12:33N 54°09' E 012°06'0 0.0
2015-May-06 11:32N 54°09' E 012°06'5 5.5
2015-May-06 10:33N 54°14' E 012°03'1514.6
2015-May-06 09:33N 54°28' E 012°10'1715.2
2015-May-06 08:27N 54°44' E 012°22'1415.3
2015-May-06 07:33N 54°55' E 012°35'1515.0
2015-May-06 06:34N 55°10' E 012°37'1515.3
2015-May-06 05:34N 55°25' E 012°40'1312.8
2015-May-06 04:33N 55°38' E 012°42'1514.7
2015-May-06 03:33N 55°53' E 012°40'1413.8
2015-May-06 02:33N 56°06' E 012°33'1714.4
2015-May-06 01:21N 56°20' E 012°16'1214.9
2015-May-06 00:32N 56°31' E 012°05'1515.0
2015-May-05 23:33N 56°44' E 011°52'1515.3
2015-May-05 22:33N 56°58' E 011°42'1515.0
2015-May-05 21:33N 57°12' E 011°31'1514.8
2015-May-05 20:34N 57°25' E 011°20'1514.7
2015-May-05 19:34N 57°37' E 011°02'1414.5
2015-May-05 18:34N 57°47' E 010°42'13513.5
2015-May-05 08:30N 58°06' E 006°30'1313.1
2015-May-05 07:31N 58°14' E 006°10'1313.4
2015-May-05 06:33N 58°22' E 005°52'1413.3
2015-May-05 05:30N 58°32' E 005°34'1313.8
2015-May-05 04:33N 58°44' E 005°21'1414.1
2015-May-05 03:33N 58°56' E 005°07'1514.7
2015-May-05 02:34N 59°08' E 004°52'  
2015-May-02 16:33N 64°46' E 011°02'8 7.5
2015-May-02 15:33N 64°52' E 011°14'1010.1
2015-May-02 14:34N 64°44' E 010°58'15115.9
2015-May-02 05:06N 63°08' E 006°33'1015.1
2015-May-02 04:25N 63°01' E 006°18'22313.0
2015-May-01 11:20N 59°21' E 004°56'1012.5
2015-May-01 10:33N 59°12' E 004°60'1212.4
2015-May-01 09:33N 59°06' E 005°21'1212.5
2015-May-01 08:33N 59°02' E 005°44'5 4.5
2015-May-01 07:33N 58°57' E 005°46'0 0.0
2015-May-01 06:33N 58°57' E 005°46'0 0.1
2015-May-01 05:33N 58°57' E 005°46'0 0.0
2015-May-01 04:33N 58°57' E 005°46'5 4.6
2015-May-01 03:33N 59°01' E 005°41'1010.1
2015-May-01 02:33N 58°52' E 005°32'4 4.0
2015-May-01 01:34N 58°49' E 005°27'8 7.6
2015-May-01 00:33N 58°42' E 005°26'10 9.7
2015-Apr-30 23:34N 58°33' E 005°34'10 9.5
2015-Apr-30 22:33N 58°25' E 005°45'1010.0
2015-Apr-30 21:34N 58°18' E 005°58'1010.0
2015-Apr-30 20:34N 58°11' E 006°12'1010.1
2015-Apr-30 19:34N 58°05' E 006°27'153 6.5
2015-Apr-29 20:06N 55°35' E 007°25'916.1
2015-Apr-29 19:33N 55°26' E 007°26'1616.1
2015-Apr-29 18:33N 55°10' E 007°27'1616.0
2015-Apr-29 17:33N 54°54' E 007°28'1615.8
2015-Apr-29 16:33N 54°38' E 007°30'1615.8
2015-Apr-29 15:33N 54°23' E 007°31'1615.7
2015-Apr-29 14:33N 54°07' E 007°33'1615.6
2015-Apr-29 13:33N 53°53' E 007°46'1414.1
2015-Apr-29 12:34N 53°48' E 008°08'1717.4
2015-Apr-29 11:33N 53°37' E 008°30'5 5.4
2015-Apr-29 10:33N 53°32' E 008°35'2 1.6
2015-Apr-29 09:33N 53°30' E 008°35'0 0.0
2015-Apr-29 08:33N 53°30' E 008°35'0 0.0
2015-Apr-29 07:33N 53°30' E 008°35'0 0.0
2015-Apr-29 06:33N 53°30' E 008°35'0 0.0
2015-Apr-29 05:33N 53°30' E 008°35'2 1.7
2015-Apr-29 04:33N 53°32' E 008°35'5 4.7
2015-Apr-29 03:33N 53°36' E 008°30'1212.4
2015-Apr-29 02:33N 53°44' E 008°15'1312.5
2015-Apr-29 01:33N 53°51' E 007°57'1312.7
2015-Apr-29 00:33N 53°54' E 007°36'1413.9
2015-Apr-28 23:33N 53°51' E 007°13'2114.0
2015-Apr-28 22:05N 53°47' E 006°39'2114.1
2015-Apr-28 20:33N 53°41' E 006°04'1414.1
2015-Apr-28 19:33N 53°36' E 005°41'1414.3
2015-Apr-28 18:33N 53°32' E 005°19'1414.4
2015-Apr-28 17:33N 53°27' E 004°56'1613.9
2015-Apr-28 16:25N 53°16' E 004°36'1314.6
2015-Apr-28 15:31N 53°05' E 004°25'4514.9
2015-Apr-28 12:31N 52°25' E 003°54'1414.9
2015-Apr-28 11:34N 52°10' E 003°54'1211.5
2015-Apr-28 10:33N 51°60' E 004°02'1212.0
2015-Apr-28 09:33N 51°54' E 004°19'4 4.1
2015-Apr-28 08:33N 51°54' E 004°26'0 0.0
2015-Apr-28 07:33N 51°54' E 004°26'0 0.0
2015-Apr-28 06:33N 51°54' E 004°26'0 0.0
2015-Apr-28 05:33N 51°54' E 004°26'0 0.0
2015-Apr-28 04:33N 51°54' E 004°26'0 0.0
2015-Apr-28 03:33N 51°54' E 004°26'0 0.0
2015-Apr-28 02:33N 51°54' E 004°26'0 0.0
2015-Apr-28 01:33N 51°54' E 004°26'0 0.0
2015-Apr-28 00:33N 51°54' E 004°26'0 0.0
2015-Apr-27 23:33N 51°54' E 004°26'0 0.0
2015-Apr-27 22:33N 51°54' E 004°26'3 2.8
2015-Apr-27 21:33N 51°54' E 004°21'0 0.0
2015-Apr-27 20:33N 51°54' E 004°21'0 0.0
2015-Apr-27 19:33N 51°54' E 004°21'0 0.0
2015-Apr-27 18:33N 51°54' E 004°21'0 0.0
2015-Apr-27 17:33N 51°54' E 004°21'0 0.0
2015-Apr-27 16:33N 51°54' E 004°21'0 0.0
2015-Apr-27 15:34N 51°54' E 004°21'0 0.0
2015-Apr-27 14:33N 51°54' E 004°21'0 0.0
2015-Apr-27 13:33N 51°54' E 004°21'0 0.0
2015-Apr-27 12:33N 51°54' E 004°21'0 0.0
2015-Apr-27 11:33N 51°54' E 004°21'0 0.0
2015-Apr-27 10:33N 51°54' E 004°21'  

Dump ship's entire track history